Ebeye, MH

11:26 PM MHT on August 22, 2014 (GMT +1200)
Saipan International | Change Station
CLOSE
Current Station
Airport
Location: Saipan,
Elevation: 213 ft
Nearby Weather Stations

Elev 213 ft 15.12 °N, 145.73 °E | Updated 32 minutes ago

Light Rain
Light Rain
80 °F
Feels Like 85 °F
N
6
Wind Variable Wind from East

Today
High -- | Low -- °F
--% Chance of Precip.
Yesterday
High -- | Low -- °F
Precip. -- in
6:29 AM 6:48 PM
Waning Crescent, 9% visible
Pressure 29.92 in
Visibility 10.0 miles
Clouds Few 2200 ft
Scattered Clouds 3800 ft
Heat Index 85 °F
Dew Point 76 °F
Humidity 87%
Rainfall 0.00 in
Snow Depth Not available.
UV 0 out of 12
Pollen Not available.
Air Quality Not available.
Flu Activity Not available.
METAR PGSN 221054Z 09005KT 10SM -RA FEW022 SCT038 27/24 A2986 RMK AO2 RAB47 SLP132 P0000 T02670244

More Conditions Fewer Conditions

Pressure 29.92 in
Visibility 10.0 miles
Clouds Few 2200 ft
Scattered Clouds 3800 ft
Heat Index 85 °F
Dew Point 76 °F
Humidity 87%
Rainfall 0.00 in
Snow Depth Not available.
UV 0 out of 12
Pollen Not available.
Air Quality Not available.
Flu Activity Not available.
METAR PGSN 221054Z 09005KT 10SM -RA FEW022 SCT038 27/24 A2986 RMK AO2 RAB47 SLP132 P0000 T02670244

More Conditions Fewer Conditions

10-Day Weather Forecast

Almanac

Astronomy

Aug. 22, 2014 Rise Set
Actual Time 6:29 AM MHT 6:48 PM MHT
Civil Twilight 6:08 AM MHT 7:09 PM MHT
Nautical Twilight 5:43 AM MHT 7:34 PM MHT
Astronomical Twilight 5:18 AM MHT 7:59 PM MHT
Moon 3:32 AM MHT 4:12 PM MHT
Length of Visible Light 13h 01m
Length of Day
12h 18m
Tomorrow will be 0m 23s shorter.
Waning Crescent, 9% of the Moon is Illuminated
Today
Waning Crescent
Aug 25
New
Sep 2
First Quarter
Sep 8
Full
Sep 15
Last Quarter

Community

WunderPhotos

Upload Photos

1,746,148 photos uploaded!

WunderBlogs® & News

By Dr. Jeff Masters
Director of Meteorology, Weather Underground
By Kari Strenfel
Meteorologist, Weather Underground
By Christopher C. Burt
Weather Historian, Weather Underground
August 22, 2014
August 22, 2014
August 22, 2014

Nearby

Snow Depth

Station Depth Elevation
No new snow has been reported.

Earthquake Activity

City Distance Mag. Time & Date
No recent earthquake activity has been reported nearby.
Minimum magnitude displayed is 2.5.

Coastal Water Temperatures

Place Temperature
No Stations Reporting

Nearby Weather Stations